Time;durP1;ratioP1;P1;durP2;ratioP2;P2;SDS_P1;SDS_P2;PMS_P1;PMS_P2;Temp;Humidity;BMP_temperature;BMP_pressure;BME280_temperature;BME280_humidity;BME280_pressure;Samples;Min_cycle;Max_cycle;Signal;HPM_P1;HPM_P2
2022/08/01 00:03:42;;;;;;;3.05;1.35;;;;;;;23.17;82.08;100616.31;8353323;28;20037;-51
2022/08/01 00:07:42;;;;;;;2.30;1.10;;;;;;;23.10;82.25;100621.88;8352643;28;20490;-49
2022/08/01 00:11:43;;;;;;;5.22;1.23;;;;;;;23.11;82.18;100619.97;8353034;28;20276;-48
2022/08/01 00:15:43;;;;;;;3.28;1.10;;;;;;;23.09;82.51;100614.66;8352930;28;20497;-49
2022/08/01 00:19:44;;;;;;;2.13;0.80;;;;;;;23.09;82.42;100620.19;8352505;28;20398;-51
2022/08/01 00:23:45;;;;;;;4.63;0.93;;;;;;;23.04;82.97;100614.50;8353013;28;20272;-48
2022/08/01 00:27:45;;;;;;;4.65;1.02;;;;;;;23.00;83.24;100613.22;8354408;28;20276;-50
2022/08/01 00:31:46;;;;;;;6.27;1.00;;;;;;;22.96;83.66;100616.63;8355174;28;20485;-50
2022/08/01 00:35:46;;;;;;;2.78;1.23;;;;;;;22.67;90.09;100629.03;8354551;28;20268;-48
2022/08/01 00:39:46;;;;;;;2.50;1.60;;;;;;;22.25;96.40;100626.75;8354079;28;20021;-49
2022/08/01 00:43:47;;;;;;;3.63;1.77;;;;;;;21.99;99.73;100631.44;8354691;28;20429;-48
2022/08/01 00:47:47;;;;;;;4.00;1.95;;;;;;;21.82;99.56;100625.47;8353129;28;20497;-52
2022/08/01 00:51:48;;;;;;;2.33;1.70;;;;;;;21.89;99.73;100626.31;8354533;28;20493;-48
2022/08/01 00:55:48;;;;;;;6.30;1.95;;;;;;;22.03;99.11;100622.53;8354120;28;20055;-49
2022/08/01 00:59:49;;;;;;;5.68;1.80;;;;;;;22.07;96.42;100622.94;8353669;28;20025;-48
2022/08/01 01:03:51;;;;;;;4.40;1.85;;;;;;;22.05;96.24;100622.31;8354056;28;20036;-48
2022/08/01 01:08:01;;;;;;;5.22;1.63;;;;;;;22.11;96.19;100618.72;8353493;28;20036;-48
2022/08/01 01:12:24;;;;;;;4.28;1.42;;;;;;;22.07;95.78;100612.78;8347932;28;20036;-48
2022/08/01 01:16:25;;;;;;;3.60;1.70;;;;;;;22.06;95.51;100627.63;8354383;28;20516;-48
2022/08/01 01:20:32;;;;;;;3.00;2.00;;;;;;;22.07;95.50;100618.28;8354142;28;20120;-48
2022/08/01 01:25:12;;;;;;;2.20;1.58;;;;;;;22.08;95.54;100625.47;8353685;28;20044;-50
2022/08/01 01:29:20;;;;;;;4.05;1.90;;;;;;;22.03;95.79;100621.66;8345114;28;20508;-49
2022/08/01 01:33:23;;;;;;;2.80;1.40;;;;;;;21.99;95.71;100626.75;8354469;28;20061;-49
2022/08/01 01:37:26;;;;;;;6.70;1.80;;;;;;;21.99;95.87;100629.50;8348013;28;20047;-49
2022/08/01 01:41:30;;;;;;;4.55;2.00;;;;;;;22.00;95.93;100628.47;8352280;28;20459;-50
2022/08/01 01:45:31;;;;;;;6.05;1.77;;;;;;;21.97;95.97;100631.63;8353767;28;20163;-51
2022/08/01 01:49:33;;;;;;;5.05;1.35;;;;;;;21.91;96.56;100635.22;8355459;28;20445;-48
2022/08/01 01:53:35;;;;;;;2.35;1.50;;;;;;;21.91;97.11;100634.38;8359158;28;20067;-51
2022/08/01 01:57:38;;;;;;;2.45;1.73;;;;;;;21.89;97.03;100626.31;8358186;28;20033;-52
2022/08/01 02:01:39;;;;;;;3.30;1.92;;;;;;;21.92;97.08;100634.16;8354405;28;20064;-49
2022/08/01 02:05:42;;;;;;;4.60;1.75;;;;;;;21.88;97.36;100630.16;8358641;28;20036;-49
2022/08/01 02:09:43;;;;;;;1.90;1.30;;;;;;;21.97;96.37;100623.38;8358167;28;20033;-48
2022/08/01 02:13:52;;;;;;;4.07;2.15;;;;;;;21.94;96.43;100621.03;8356257;28;20029;-48
2022/08/01 02:17:56;;;;;;;3.80;1.33;;;;;;;21.88;97.04;100619.13;8357535;28;20029;-52
2022/08/01 02:22:01;;;;;;;3.33;1.50;;;;;;;21.91;96.48;100615.97;8358767;28;20029;-49
2022/08/01 02:26:05;;;;;;;1.92;1.60;;;;;;;21.84;97.08;100617.88;8358104;28;20029;-49
2022/08/01 02:30:08;;;;;;;4.00;1.33;;;;;;;21.91;96.34;100602.19;8358152;28;20529;-48
2022/08/01 02:34:13;;;;;;;3.80;1.20;;;;;;;21.94;96.31;100607.28;8351485;28;20037;-51
2022/08/01 02:38:14;;;;;;;;;;;;;;;21.87;96.75;100611.94;8357851;28;20040;-49
2022/08/01 02:42:18;;;;;;;3.35;1.92;;;;;;;21.90;96.49;100617.03;8357506;28;19932;-51
2022/08/01 02:46:25;;;;;;;3.72;1.73;;;;;;;21.89;96.50;100615.31;8358019;28;20093;-51
2022/08/01 02:50:29;;;;;;;10.30;2.28;;;;;;;21.88;96.77;100608.13;8356480;28;20462;-50
2022/08/01 02:54:32;;;;;;;3.25;2.05;;;;;;;21.93;96.91;100605.59;8358277;28;20044;-49
2022/08/01 02:58:36;;;;;;;5.70;2.08;;;;;;;21.85;97.06;100594.78;8356245;28;20512;-49
2022/08/01 03:02:37;;;;;;;3.22;1.85;;;;;;;21.89;96.72;100603.47;8357570;28;20055;-50
2022/08/01 03:06:39;;;;;;;5.18;2.05;;;;;;;21.90;96.38;100600.50;8346077;28;20033;-48
2022/08/01 03:10:44;;;;;;;5.43;1.83;;;;;;;21.86;96.71;100599.22;8357294;28;20496;-49
2022/08/01 03:14:47;;;;;;;4.63;1.90;;;;;;;21.87;96.98;100600.94;8357355;28;20052;-51
2022/08/01 03:18:49;;;;;;;5.13;2.17;;;;;;;21.90;96.56;100603.25;8355755;28;20445;-52
2022/08/01 03:22:52;;;;;;;3.20;2.05;;;;;;;21.89;96.91;100608.97;8355969;28;20032;-49
2022/08/01 03:26:55;;;;;;;4.03;2.22;;;;;;;21.88;97.09;100607.25;8356597;28;20712;-50
2022/08/01 03:30:57;;;;;;;3.75;2.10;;;;;;;21.87;97.05;100611.94;8356433;28;20036;-50
2022/08/01 03:34:58;;;;;;;4.57;2.75;;;;;;;21.89;96.95;100611.72;8350397;28;20048;-50
2022/08/01 03:39:02;;;;;;;5.15;3.00;;;;;;;21.89;96.72;100618.06;8356294;28;20059;-49
2022/08/01 03:43:07;;;;;;;6.25;3.83;;;;;;;21.89;97.08;100614.47;8356282;28;20041;-49
2022/08/01 03:47:10;;;;;;;6.32;3.88;;;;;;;21.81;97.72;100607.28;8355918;28;20025;-49
2022/08/01 03:51:13;;;;;;;6.03;3.42;;;;;;;21.82;98.14;100613.59;8355351;28;20173;-50
2022/08/01 03:55:16;;;;;;;5.50;3.13;;;;;;;21.85;97.65;100619.56;8356040;28;20033;-49
2022/08/01 03:59:19;;;;;;;7.88;3.67;;;;;;;21.83;98.06;100615.31;8354505;28;20044;-48
2022/08/01 04:03:19;;;;;;;5.35;3.20;;;;;;;21.81;97.94;100618.28;8355111;28;20134;-53
2022/08/01 04:07:23;;;;;;;5.25;3.50;;;;;;;21.76;98.41;100615.31;8348134;28;20489;-49
2022/08/01 04:11:25;;;;;;;7.05;4.05;;;;;;;21.77;98.38;100606.00;8353342;28;20033;-51
2022/08/01 04:15:26;;;;;;;7.50;3.78;;;;;;;21.77;98.73;100605.16;8355534;28;20036;-49
2022/08/01 04:19:26;;;;;;;6.45;3.60;;;;;;;21.79;98.71;100611.28;8355302;28;20048;-49
2022/08/01 04:23:31;;;;;;;6.57;3.67;;;;;;;21.81;98.55;100615.53;8355445;28;20882;-49
2022/08/01 04:27:38;;;;;;;9.38;3.75;;;;;;;21.84;98.50;100623.38;8354891;28;20256;-49
2022/08/01 04:31:44;;;;;;;8.57;3.80;;;;;;;21.86;98.48;100626.75;8346324;28;20076;-50
2022/08/01 04:35:46;;;;;;;5.63;3.58;;;;;;;21.83;98.43;100627.16;8354679;28;20112;-49
2022/08/01 04:39:48;;;;;;;5.53;4.00;;;;;;;21.74;99.09;100633.94;8354203;28;20059;-49
2022/08/01 04:43:48;;;;;;;10.82;3.65;;;;;;;21.79;98.81;100630.56;8354674;28;20037;-50
2022/08/01 04:47:49;;;;;;;10.45;3.60;;;;;;;21.89;98.54;100642.84;8353239;28;20090;-51
2022/08/01 04:51:51;;;;;;;6.82;3.35;;;;;;;21.94;98.50;100653.22;8353778;28;20052;-50
2022/08/01 04:55:52;;;;;;;9.10;3.92;;;;;;;21.89;98.55;100651.09;8354509;28;20490;-53
2022/08/01 04:59:56;;;;;;;6.93;3.87;;;;;;;21.95;98.34;100653.03;8352515;28;20409;-49
2022/08/01 05:03:56;;;;;;;10.52;4.20;;;;;;;21.92;98.09;100650.69;8354594;28;20571;-52
2022/08/01 05:07:57;;;;;;;13.05;4.53;;;;;;;21.97;97.67;100661.94;8353979;28;20489;-49
2022/08/01 05:12:00;;;;;;;9.63;3.50;;;;;;;21.99;98.18;100662.53;8354915;28;20517;-49
2022/08/01 05:16:03;;;;;;;16.48;4.93;;;;;;;21.93;98.73;100660.66;8351831;28;20224;-51
2022/08/01 05:20:06;;;;;;;9.13;5.05;;;;;;;21.92;98.90;100658.94;8353778;28;20033;-50
2022/08/01 05:24:06;;;;;;;11.32;6.13;;;;;;;21.88;98.84;100667.84;8355501;28;20377;-53
2022/08/01 05:28:06;;;;;;;14.73;6.30;;;;;;;21.94;98.90;100662.34;8357652;28;20051;-52
2022/08/01 05:32:07;;;;;;;16.73;7.68;;;;;;;21.81;99.13;100676.09;8356108;28;20036;-52
2022/08/01 05:36:08;;;;;;;15.70;7.65;;;;;;;21.81;99.40;100683.50;8359490;28;20443;-49
2022/08/01 05:40:09;;;;;;;16.65;5.72;;;;;;;21.84;100.00;100680.34;8359375;28;20124;-50
2022/08/01 05:44:10;;;;;;;15.35;6.18;;;;;;;21.69;100.00;100683.25;8359882;28;20068;-50
2022/08/01 05:48:10;;;;;;;11.73;5.82;;;;;;;21.60;100.00;100676.22;8359427;28;20110;-52
2022/08/01 05:52:11;;;;;;;15.80;5.68;;;;;;;21.53;100.00;100674.53;8360377;28;20036;-51
2022/08/01 05:56:11;;;;;;;9.75;5.40;;;;;;;21.51;100.00;100677.47;8358306;28;20086;-49
2022/08/01 06:00:14;;;;;;;18.95;7.43;;;;;;;21.61;100.00;100683.41;8358972;28;20128;-49
2022/08/01 06:04:14;;;;;;;12.45;6.10;;;;;;;21.80;100.00;100674.38;8358985;28;20155;-49
2022/08/01 06:08:15;;;;;;;18.45;6.28;;;;;;;21.89;100.00;100680.56;8358493;28;20044;-50
2022/08/01 06:12:15;;;;;;;13.65;6.00;;;;;;;21.94;100.00;100678.88;8357804;28;20127;-51
2022/08/01 06:16:16;;;;;;;13.48;7.53;;;;;;;22.13;100.00;100683.53;8358981;28;20041;-51
2022/08/01 06:20:16;;;;;;;19.27;7.60;;;;;;;22.37;100.00;100674.63;8358773;28;20037;-50
2022/08/01 06:24:17;;;;;;;13.32;6.78;;;;;;;22.58;100.00;100682.72;8358719;28;20044;-52
2022/08/01 06:28:17;;;;;;;12.98;7.07;;;;;;;22.48;100.00;100665.72;8357691;28;20041;-51
2022/08/01 06:32:18;;;;;;;16.58;7.43;;;;;;;22.40;99.50;100665.09;8349707;28;20080;-49
2022/08/01 06:36:19;;;;;;;15.20;7.43;;;;;;;22.46;99.38;100669.75;8354800;28;20045;-50
2022/08/01 06:40:19;;;;;;;18.85;8.77;;;;;;;22.71;97.61;100665.28;8356209;28;20329;-49
2022/08/01 06:44:20;;;;;;;18.02;7.93;;;;;;;22.92;96.09;100682.41;8355626;28;20090;-52
2022/08/01 06:48:20;;;;;;;15.07;7.97;;;;;;;22.91;94.73;100677.94;8357372;28;20048;-52
2022/08/01 06:52:20;;;;;;;18.83;7.65;;;;;;;22.97;94.59;100682.59;8358044;28;20451;-52
2022/08/01 06:56:21;;;;;;;9.80;7.25;;;;;;;23.17;93.39;100688.06;8380650;28;20087;-52
2022/08/01 07:00:23;;;;;;;12.77;6.80;;;;;;;23.11;91.71;100689.78;8357078;28;20516;-49
2022/08/01 07:04:23;;;;;;;11.52;6.93;;;;;;;22.84;92.32;100693.66;8357202;28;20271;-51
2022/08/01 07:08:23;;;;;;;12.25;6.57;;;;;;;22.81;93.30;100688.59;8356197;28;20409;-49
2022/08/01 07:12:24;;;;;;;10.20;5.60;;;;;;;23.05;91.09;100698.94;8356266;28;20039;-52
2022/08/01 07:16:24;;;;;;;9.80;5.50;;;;;;;23.34;89.74;100693.97;8357005;28;20345;-50
2022/08/01 07:20:24;;;;;;;8.82;5.53;;;;;;;23.70;86.96;100686.78;8356525;28;20649;-53
2022/08/01 07:24:25;;;;;;;7.37;4.87;;;;;;;23.75;86.43;100683.38;8356665;28;20413;-50
2022/08/01 07:28:25;;;;;;;6.70;5.07;;;;;;;23.69;86.88;100681.50;8355850;28;20264;-53
2022/08/01 07:32:26;;;;;;;8.95;6.45;;;;;;;24.12;83.74;100699.06;8355965;28;20029;-49
2022/08/01 07:36:26;;;;;;;8.35;5.95;;;;;;;24.01;82.83;100697.88;8355825;28;20036;-51
2022/08/01 07:40:27;;;;;;;8.30;5.80;;;;;;;24.20;83.65;100704.31;8355321;28;20071;-53
2022/08/01 07:44:27;;;;;;;7.97;4.25;;;;;;;24.98;82.84;100707.22;8355183;28;20136;-51
2022/08/01 07:48:42;;;;;;;7.47;5.10;;;;;;;25.61;79.47;100710.53;8354382;28;20040;-50
2022/08/01 07:52:43;;;;;;;11.88;5.93;;;;;;;24.52;80.53;100705.97;8356135;28;20739;-49
2022/08/01 07:56:43;;;;;;;6.75;4.65;;;;;;;24.71;80.49;100693.91;8355375;28;20464;-50
2022/08/01 08:00:44;;;;;;;5.33;4.30;;;;;;;24.97;80.45;100705.53;8354177;28;20120;-51
2022/08/01 08:04:44;;;;;;;6.07;4.30;;;;;;;24.84;79.62;100697.38;8353816;28;20245;-51
2022/08/01 08:08:45;;;;;;;4.40;3.97;;;;;;;25.89;75.60;100702.44;8353874;28;20115;-50
2022/08/01 08:12:46;;;;;;;7.13;4.07;;;;;;;25.58;76.21;100705.44;8353481;28;20283;-53
2022/08/01 08:16:47;;;;;;;8.20;4.47;;;;;;;24.88;78.08;100700.50;8354930;28;20107;-53
2022/08/01 08:20:47;;;;;;;4.50;3.15;;;;;;;25.36;76.12;100704.25;8355296;28;20082;-51
2022/08/01 08:24:47;;;;;;;3.80;3.40;;;;;;;25.57;75.97;100717.63;8354205;28;20059;-50
2022/08/01 08:28:48;;;;;;;7.97;4.13;;;;;;;26.65;73.17;100711.72;8353096;28;20533;-51
2022/08/01 08:32:48;;;;;;;3.70;3.40;;;;;;;26.16;74.90;100714.84;8355108;28;20919;-51
2022/08/01 08:36:49;;;;;;;6.35;3.70;;;;;;;26.12;75.17;100721.09;8353421;28;20279;-52
2022/08/01 08:40:50;;;;;;;6.40;3.78;;;;;;;26.39;75.45;100716.84;8353053;28;20048;-50
2022/08/01 08:44:51;;;;;;;4.93;3.92;;;;;;;26.16;73.95;100723.16;8353943;28;20021;-53
2022/08/01 08:48:52;;;;;;;6.18;4.07;;;;;;;25.65;74.89;100717.31;8354330;28;20025;-50
2022/08/01 08:52:54;;;;;;;6.43;4.18;;;;;;;25.79;75.65;100716.03;8353280;28;20392;-50
2022/08/01 08:56:55;;;;;;;5.53;4.22;;;;;;;25.30;76.52;100721.75;8354213;28;20469;-49
2022/08/01 09:00:56;;;;;;;5.22;3.78;;;;;;;25.04;77.13;100722.06;8361152;28;20033;-50
2022/08/01 09:04:57;;;;;;;10.55;4.45;;;;;;;25.59;76.81;100725.69;8361685;28;20041;-50
2022/08/01 09:08:58;;;;;;;5.03;3.78;;;;;;;25.82;76.75;100726.63;8359370;28;20070;-49
2022/08/01 09:13:12;;;;;;;6.93;4.55;;;;;;;25.69;76.07;100734.28;8360715;28;20065;-51
2022/08/01 09:17:13;;;;;;;5.07;4.10;;;;;;;25.77;76.93;100733.97;8357786;28;20459;-52
2022/08/01 09:21:17;;;;;;;4.78;4.38;;;;;;;25.99;73.91;100733.25;8360774;28;20037;-51
2022/08/01 09:25:18;;;;;;;6.00;3.92;;;;;;;25.94;73.96;100730.31;8360481;28;20634;-50
2022/08/01 09:29:28;;;;;;;8.45;4.32;;;;;;;26.39;72.78;100728.78;8359328;28;20619;-52
2022/08/01 09:33:50;;;;;;;6.90;3.72;;;;;;;26.25;72.27;100731.97;8360642;28;20329;-52
2022/08/01 09:37:50;;;;;;;8.13;3.53;;;;;;;26.31;71.10;100729.13;8359558;28;20033;-50
2022/08/01 09:41:52;;;;;;;6.72;3.45;;;;;;;26.92;70.24;100731.50;8359869;28;20056;-53
2022/08/01 09:45:52;;;;;;;6.57;3.33;;;;;;;26.70;69.09;100734.03;8358222;28;20039;-49
2022/08/01 09:49:56;;;;;;;4.95;3.17;;;;;;;27.41;68.58;100744.06;8358540;28;20049;-50
2022/08/01 09:53:56;;;;;;;5.23;3.17;;;;;;;27.10;69.14;100744.41;8381520;28;20032;-49
2022/08/01 09:58:00;;;;;;;8.57;3.38;;;;;;;27.14;69.16;100748.41;8358640;28;20029;-50
2022/08/01 10:02:00;;;;;;;5.82;3.28;;;;;;;27.51;67.57;100733.16;8358790;28;20133;-50
2022/08/01 10:06:19;;;;;;;6.20;3.30;;;;;;;28.63;63.07;100733.97;8358517;28;20394;-51
2022/08/01 10:10:20;;;;;;;4.10;3.35;;;;;;;30.81;60.03;100728.09;8356837;28;20280;-50
2022/08/01 10:14:22;;;;;;;7.30;3.10;;;;;;;29.83;60.97;100734.91;8356737;28;20036;-50
2022/08/01 10:18:23;;;;;;;9.00;4.28;;;;;;;28.04;64.92;100733.69;8358644;28;20275;-54
2022/08/01 10:22:24;;;;;;;8.55;3.90;;;;;;;26.68;69.64;100732.56;8357863;28;20567;-50
2022/08/01 10:26:26;;;;;;;4.10;3.65;;;;;;;27.29;69.04;100732.13;8358471;28;20494;-50
2022/08/01 10:30:28;;;;;;;4.88;3.88;;;;;;;30.65;59.53;100737.44;8360888;28;20036;-52
2022/08/01 10:34:29;;;;;;;6.57;3.78;;;;;;;31.14;57.25;100733.34;8359100;28;20033;-52
2022/08/01 10:38:30;;;;;;;4.85;3.60;;;;;;;29.01;61.14;100738.75;8355838;28;20063;-52
2022/08/01 10:42:31;;;;;;;4.32;3.92;;;;;;;28.15;63.73;100735.59;8356434;28;20064;-49
2022/08/01 10:46:37;;;;;;;5.40;3.63;;;;;;;27.82;65.35;100741.00;8355883;28;20032;-49
2022/08/01 10:50:44;;;;;;;4.70;3.53;;;;;;;29.69;60.17;100739.19;8354135;28;20406;-50
2022/08/01 10:54:44;;;;;;;5.13;3.08;;;;;;;31.02;57.45;100738.31;8356207;28;20123;-50
2022/08/01 10:58:47;;;;;;;4.70;2.40;;;;;;;33.50;51.53;100743.91;8356082;28;20029;-51
2022/08/01 11:03:03;;;;;;;6.35;3.22;;;;;;;31.88;53.04;100732.94;8352980;28;20033;-50
2022/08/01 11:07:07;;;;;;;7.32;3.47;;;;;;;30.34;56.66;100730.72;8352395;28;20040;-50
2022/08/01 11:11:07;;;;;;;4.27;3.30;;;;;;;30.20;58.88;100724.75;8352916;28;20039;-50
2022/08/01 11:15:13;;;;;;;4.25;3.28;;;;;;;31.24;56.54;100719.44;8357077;28;20037;-51
2022/08/01 11:19:14;;;;;;;4.97;3.42;;;;;;;32.31;52.93;100714.81;8353980;28;20216;-50
2022/08/01 11:23:16;;;;;;;5.35;2.95;;;;;;;29.85;58.61;100715.97;8352437;28;20413;-50
2022/08/01 11:27:28;;;;;;;3.10;2.80;;;;;;;31.68;54.98;100720.81;8353769;28;20081;-51
2022/08/01 11:31:29;;;;;;;3.83;3.00;;;;;;;31.24;55.07;100720.28;8355051;28;20131;-53
2022/08/01 11:35:29;;;;;;;3.53;2.10;;;;;;;31.82;53.33;100710.81;8347828;28;20037;-51
2022/08/01 11:39:30;;;;;;;2.70;2.03;;;;;;;32.91;50.43;100717.69;8354631;28;20040;-51
2022/08/01 11:43:30;;;;;;;4.13;2.08;;;;;;;33.89;48.22;100716.84;8354553;28;20413;-51
2022/08/01 11:47:48;;;;;;;2.50;2.17;;;;;;;33.62;48.64;100719.19;8353787;28;20507;-52
2022/08/01 11:52:00;;;;;;;2.13;1.85;;;;;;;33.83;47.73;100703.94;8348735;28;20271;-51
2022/08/01 11:56:01;;;;;;;3.38;2.00;;;;;;;33.83;47.87;100701.13;8353672;28;20123;-50
2022/08/01 12:00:13;;;;;;;2.15;1.85;;;;;;;33.44;47.20;100708.59;8353543;28;20079;-51
2022/08/01 12:04:13;;;;;;;2.40;2.20;;;;;;;30.66;51.83;100706.44;8342952;28;20078;-50
2022/08/01 12:08:26;;;;;;;2.60;2.40;;;;;;;29.97;53.97;100708.28;8352898;28;20115;-52
2022/08/01 12:12:27;;;;;;;3.42;2.72;;;;;;;29.22;55.42;100712.91;8352705;28;20033;-49
2022/08/01 12:16:28;;;;;;;2.50;2.30;;;;;;;29.40;55.96;100712.56;8353463;28;20505;-50
2022/08/01 12:20:32;;;;;;;4.63;2.60;;;;;;;29.62;54.50;100705.13;8352785;28;20424;-50
2022/08/01 12:24:35;;;;;;;5.60;2.70;;;;;;;29.48;55.36;100703.78;8353178;28;20167;-53
2022/08/01 12:28:40;;;;;;;3.53;2.13;;;;;;;28.51;56.84;100712.88;8352560;28;20033;-51
2022/08/01 12:32:42;;;;;;;2.53;1.90;;;;;;;28.37;57.35;100705.94;8351041;28;20033;-51
2022/08/01 12:36:43;;;;;;;3.33;1.98;;;;;;;28.91;54.74;100707.13;8351015;28;20075;-49
2022/08/01 12:40:46;;;;;;;3.22;2.47;;;;;;;28.86;55.24;100705.09;8352505;28;20509;-50
2022/08/01 12:44:51;;;;;;;3.78;3.05;;;;;;;29.23;54.99;100700.66;8350638;28;20075;-50
2022/08/01 12:48:51;;;;;;;3.55;2.55;;;;;;;28.63;55.68;100699.72;8351858;28;20033;-49
2022/08/01 12:52:52;;;;;;;2.97;2.40;;;;;;;28.26;56.14;100701.28;8351109;28;20112;-50
2022/08/01 12:56:53;;;;;;;3.67;2.58;;;;;;;27.65;57.29;100695.63;8351868;28;20037;-50
2022/08/01 13:01:04;;;;;;;2.78;2.53;;;;;;;27.97;56.90;100689.38;8352421;28;20093;-50
2022/08/01 13:05:05;;;;;;;4.93;1.85;;;;;;;28.45;56.07;100702.75;8352038;28;20493;-49
2022/08/01 13:09:08;;;;;;;5.88;2.03;;;;;;;28.84;54.21;100696.16;8351585;28;20033;-50
2022/08/01 13:13:10;;;;;;;2.20;1.23;;;;;;;28.24;53.21;100701.53;8351189;28;20043;-50
2022/08/01 13:17:10;;;;;;;1.38;1.27;;;;;;;28.09;52.23;100698.47;8351982;28;20045;-50
2022/08/01 13:21:15;;;;;;;10.90;2.03;;;;;;;29.00;54.63;100700.84;8352173;28;20118;-49
2022/08/01 13:25:16;;;;;;;3.15;1.70;;;;;;;29.20;53.69;100700.31;8351275;28;20052;-52
2022/08/01 13:29:20;;;;;;;4.47;2.20;;;;;;;29.09;53.47;100699.34;8351116;28;20033;-49
2022/08/01 13:33:20;;;;;;;3.72;1.80;;;;;;;28.40;53.80;100697.09;8351678;28;20045;-50
2022/08/01 13:37:21;;;;;;;3.30;1.77;;;;;;;27.94;54.13;100694.59;8343561;28;20041;-49
2022/08/01 13:41:21;;;;;;;2.35;1.70;;;;;;;28.32;54.39;100703.06;8348757;28;20051;-49
2022/08/01 13:45:23;;;;;;;5.07;1.65;;;;;;;28.44;53.66;100701.03;8352533;28;20060;-50
2022/08/01 13:49:23;;;;;;;2.08;1.45;;;;;;;28.75;52.65;100686.56;8354937;28;20029;-50
2022/08/01 13:53:24;;;;;;;6.65;1.40;;;;;;;28.99;52.79;100703.88;8355088;28;20117;-51
2022/08/01 13:57:24;;;;;;;3.85;1.50;;;;;;;28.42;52.46;100703.25;8355052;28;20516;-50
2022/08/01 14:01:25;;;;;;;1.33;1.23;;;;;;;28.68;52.18;100702.59;8354866;28;20071;-49
2022/08/01 14:05:25;;;;;;;2.72;1.63;;;;;;;28.56;51.96;100705.47;8355595;28;20437;-50
2022/08/01 14:09:26;;;;;;;3.05;1.50;;;;;;;28.45;52.86;100703.59;8353406;28;20503;-50
2022/08/01 14:13:27;;;;;;;1.60;1.50;;;;;;;28.49;53.03;100701.16;8355617;28;20457;-49
2022/08/01 14:17:27;;;;;;;3.25;1.23;;;;;;;27.99;53.06;100691.91;8355093;28;20271;-49
2022/08/01 14:21:28;;;;;;;3.67;1.80;;;;;;;28.07;52.57;100694.28;8355114;28;20115;-50
2022/08/01 14:25:28;;;;;;;1.67;1.33;;;;;;;28.33;52.51;100693.63;8355451;28;20041;-50
2022/08/01 14:29:29;;;;;;;1.40;1.30;;;;;;;27.97;52.68;100694.94;8353280;28;20683;-49
2022/08/01 14:33:30;;;;;;;2.33;1.10;;;;;;;28.04;52.56;100678.09;8355016;28;20504;-51
2022/08/01 14:37:31;;;;;;;1.55;1.20;;;;;;;28.41;52.12;100690.41;8354152;28;20345;-50
2022/08/01 14:41:32;;;;;;;2.08;1.23;;;;;;;28.31;52.31;100679.13;8354241;28;20120;-51
2022/08/01 14:45:32;;;;;;;3.42;1.42;;;;;;;28.38;51.30;100679.78;8353581;28;20091;-50
2022/08/01 14:49:33;;;;;;;0.90;0.90;;;;;;;28.18;52.93;100674.72;8353932;28;20029;-51
2022/08/01 14:53:36;;;;;;;1.45;1.25;;;;;;;27.99;52.40;100675.22;8353866;28;20032;-50
2022/08/01 14:57:38;;;;;;;2.28;1.20;;;;;;;27.80;52.87;100670.94;8353490;28;20025;-50
2022/08/01 15:01:38;;;;;;;1.67;1.13;;;;;;;27.81;53.21;100680.97;8353651;28;20040;-49
2022/08/01 15:05:40;;;;;;;2.58;1.02;;;;;;;27.93;52.65;100681.78;8347497;28;20033;-50
2022/08/01 15:09:40;;;;;;;1.38;1.13;;;;;;;28.59;52.18;100687.41;8352314;28;20028;-50
2022/08/01 15:13:41;;;;;;;5.68;1.58;;;;;;;28.15;52.97;100688.31;8353482;28;20453;-50
2022/08/01 15:17:41;;;;;;;2.33;1.00;;;;;;;28.37;53.56;100690.09;8353014;28;20041;-53
2022/08/01 15:21:42;;;;;;;2.92;1.42;;;;;;;28.40;54.24;100699.88;8353438;28;20037;-50
2022/08/01 15:25:42;;;;;;;3.95;1.15;;;;;;;27.42;58.75;100695.72;8353177;28;20501;-52
2022/08/01 15:29:43;;;;;;;1.63;1.35;;;;;;;26.96;61.03;100702.19;8351267;28;20418;-53
2022/08/01 15:33:43;;;;;;;2.65;1.30;;;;;;;26.75;61.90;100706.41;8352624;28;20393;-52
2022/08/01 15:37:44;;;;;;;3.58;2.05;;;;;;;26.67;62.48;100715.09;8350032;28;20033;-53
2022/08/01 15:41:44;;;;;;;2.13;1.52;;;;;;;26.81;62.52;100710.97;8350027;28;20040;-53
2022/08/01 15:45:44;;;;;;;2.53;1.80;;;;;;;26.83;62.34;100708.81;8352005;28;20393;-50
2022/08/01 15:49:45;;;;;;;3.05;1.58;;;;;;;26.79;62.25;100704.84;8348115;28;20828;-49
2022/08/01 15:53:46;;;;;;;2.38;1.65;;;;;;;26.65;62.71;100711.72;8351754;28;20037;-50
2022/08/01 15:57:46;;;;;;;2.40;1.40;;;;;;;26.69;63.04;100718.47;8350682;28;20037;-52
2022/08/01 16:01:48;;;;;;;7.43;1.37;;;;;;;26.62;62.40;100717.75;8344228;28;20045;-51
2022/08/01 16:05:49;;;;;;;1.92;1.20;;;;;;;26.52;62.84;100723.00;8346143;28;20702;-50
2022/08/01 16:09:49;;;;;;;1.70;1.30;;;;;;;26.56;62.90;100718.66;8349352;28;20051;-50
2022/08/01 16:13:50;;;;;;;2.03;1.27;;;;;;;26.86;62.53;100723.31;8349777;28;20083;-51
2022/08/01 16:17:50;;;;;;;2.60;1.30;;;;;;;26.78;62.46;100719.78;8343583;28;20274;-52
2022/08/01 16:21:51;;;;;;;1.33;1.08;;;;;;;26.47;63.13;100724.81;8348717;28;20045;-53
2022/08/01 16:25:52;;;;;;;1.10;1.00;;;;;;;26.17;63.96;100724.84;8349850;28;20393;-51
2022/08/01 16:29:52;;;;;;;1.58;1.35;;;;;;;26.07;64.35;100713.50;8348827;28;20098;-50
2022/08/01 16:33:53;;;;;;;3.40;1.50;;;;;;;26.22;64.32;100716.69;8350817;28;20032;-50
2022/08/01 16:37:53;;;;;;;2.33;1.55;;;;;;;26.29;63.86;100716.59;8349578;28;20060;-52
2022/08/01 16:41:53;;;;;;;2.75;1.17;;;;;;;26.24;64.02;100724.75;8348185;28;20304;-53
2022/08/01 16:45:54;;;;;;;2.35;1.38;;;;;;;26.07;63.90;100719.06;8349739;28;20033;-53
2022/08/01 16:49:54;;;;;;;3.85;1.48;;;;;;;26.09;63.84;100722.44;8350434;28;20055;-50
2022/08/01 16:53:55;;;;;;;1.70;1.10;;;;;;;26.00;64.68;100715.53;8342162;28;20029;-53
2022/08/01 16:57:56;;;;;;;1.52;1.38;;;;;;;25.87;65.48;100712.94;8341131;28;20040;-49
2022/08/01 17:01:56;;;;;;;3.13;1.02;;;;;;;25.81;66.20;100713.88;8349779;28;20398;-50
2022/08/01 17:05:57;;;;;;;2.45;1.30;;;;;;;25.75;66.18;100720.34;8348906;28;20055;-49
2022/08/01 17:09:59;;;;;;;3.28;1.30;;;;;;;25.72;66.71;100719.97;8343640;28;20052;-50
2022/08/01 17:14:00;;;;;;;4.40;1.10;;;;;;;25.78;66.60;100719.88;8347663;28;20029;-50
2022/08/01 17:18:02;;;;;;;5.57;1.48;;;;;;;25.85;66.42;100719.78;8347918;28;20508;-52
2022/08/01 17:22:03;;;;;;;3.45;1.35;;;;;;;26.01;65.64;100717.22;8356285;28;20037;-52
2022/08/01 17:26:03;;;;;;;3.08;1.33;;;;;;;25.89;65.43;100723.78;8355398;28;20041;-52
2022/08/01 17:30:05;;;;;;;3.95;1.15;;;;;;;25.92;65.57;100721.38;8356387;28;20562;-49
2022/08/01 17:34:05;;;;;;;3.63;0.90;;;;;;;25.97;65.41;100718.75;8356712;28;20593;-52
2022/08/01 17:38:05;;;;;;;2.37;1.40;;;;;;;25.83;65.79;100717.22;8356628;28;20033;-49
2022/08/01 17:42:08;;;;;;;3.90;1.00;;;;;;;25.79;65.93;100720.72;8356488;28;20276;-50
2022/08/01 17:46:08;;;;;;;1.30;1.17;;;;;;;25.71;66.54;100727.41;8356438;28;20037;-51
2022/08/01 17:50:10;;;;;;;1.33;0.98;;;;;;;25.44;65.88;100728.88;8356318;28;20036;-49
2022/08/01 17:54:11;;;;;;;1.65;1.08;;;;;;;25.32;65.95;100739.03;8355766;28;20076;-52
2022/08/01 17:58:13;;;;;;;4.93;1.10;;;;;;;25.35;66.04;100746.00;8355290;28;20044;-50
2022/08/01 18:02:13;;;;;;;1.40;0.90;;;;;;;25.27;66.02;100740.72;8350569;28;20221;-49
2022/08/01 18:06:16;;;;;;;3.75;1.20;;;;;;;25.26;66.10;100741.81;8353403;28;20524;-49
2022/08/01 18:10:16;;;;;;;4.43;0.85;;;;;;;25.18;66.37;100744.91;8353661;28;20410;-49
2022/08/01 18:14:17;;;;;;;1.63;0.82;;;;;;;25.09;66.33;100752.66;8354256;28;20033;-51
2022/08/01 18:18:18;;;;;;;1.63;0.90;;;;;;;25.04;65.59;100744.22;8353198;28;20034;-51
2022/08/01 18:22:19;;;;;;;3.38;0.90;;;;;;;24.99;65.55;100749.56;8354024;28;20095;-49
2022/08/01 18:26:20;;;;;;;1.45;0.90;;;;;;;24.92;65.83;100754.34;8352945;28;20546;-49
2022/08/01 18:30:20;;;;;;;3.45;1.10;;;;;;;24.87;65.73;100751.41;8352779;28;20546;-49
2022/08/01 18:34:21;;;;;;;1.67;1.10;;;;;;;24.78;65.41;100761.91;8353284;28;20471;-50
2022/08/01 18:38:21;;;;;;;3.17;1.00;;;;;;;24.69;65.11;100770.72;8353599;28;20445;-49
2022/08/01 18:42:22;;;;;;;7.03;1.20;;;;;;;24.58;64.97;100771.44;8353244;28;20109;-51
2022/08/01 18:46:22;;;;;;;3.15;1.10;;;;;;;24.46;65.04;100763.00;8351197;28;20618;-53